createdAt,value
2024-02-23T00:01:19.285Z,3.30
2024-02-23T00:03:21.250Z,3.40
2024-02-23T00:05:23.319Z,3.30
2024-02-23T00:07:25.289Z,3.30
2024-02-23T00:09:28.073Z,3.30
2024-02-23T00:11:30.449Z,3.30
2024-02-23T00:13:32.516Z,3.30
2024-02-23T00:15:34.335Z,3.20
2024-02-23T00:17:36.394Z,3.20
2024-02-23T00:19:38.797Z,3.40
2024-02-23T00:21:41.398Z,3.30
2024-02-23T00:23:43.350Z,3.30
2024-02-23T00:25:45.311Z,3.30
2024-02-23T00:27:48.173Z,3.30
2024-02-23T00:29:50.107Z,3.20
2024-02-23T00:31:52.112Z,3.20
2024-02-23T00:33:54.053Z,3.30
2024-02-23T00:35:56.316Z,3.20
2024-02-23T00:37:58.311Z,3.20
2024-02-23T00:40:00.174Z,3.20
2024-02-23T00:42:02.150Z,3.20
2024-02-23T00:44:04.696Z,3.20
2024-02-23T00:46:06.844Z,3.20
2024-02-23T00:48:08.814Z,3.20
2024-02-23T00:50:11.952Z,3.20
2024-02-23T00:52:13.999Z,3.20
2024-02-23T00:54:15.918Z,3.20
2024-02-23T00:56:17.917Z,3.30
2024-02-23T00:58:19.803Z,3.20
2024-02-23T01:00:21.970Z,3.20
2024-02-23T01:02:24.042Z,3.20
2024-02-23T01:04:25.853Z,3.30
2024-02-23T01:06:29.670Z,3.20
2024-02-23T01:08:32.918Z,3.20
2024-02-23T01:10:34.846Z,3.20
2024-02-23T01:12:37.333Z,3.20
2024-02-23T01:14:39.237Z,3.20
2024-02-23T01:16:41.169Z,3.20
2024-02-23T01:18:43.129Z,3.20
2024-02-23T01:20:45.173Z,3.20
2024-02-23T01:22:47.620Z,3.30
2024-02-23T01:24:49.665Z,3.30
2024-02-23T01:26:51.474Z,3.30
2024-02-23T01:28:53.455Z,3.40
2024-02-23T01:30:55.379Z,3.40
2024-02-23T01:32:57.450Z,3.40
2024-02-23T01:34:59.364Z,3.40
2024-02-23T01:37:01.279Z,3.40
2024-02-23T01:39:03.345Z,3.40
2024-02-23T01:41:05.308Z,3.40
2024-02-23T01:43:07.620Z,3.40
2024-02-23T01:45:09.746Z,3.40
2024-02-23T01:47:12.260Z,3.40
2024-02-23T01:49:15.117Z,3.40
2024-02-23T01:51:17.897Z,3.50
2024-02-23T01:53:20.659Z,3.50
2024-02-23T01:55:23.631Z,3.50
2024-02-23T01:57:39.987Z,3.50
2024-02-23T01:59:48.126Z,3.50
2024-02-23T02:01:49.999Z,3.50
2024-02-23T02:03:51.985Z,3.60
2024-02-23T02:05:55.193Z,3.60
2024-02-23T02:08:00.818Z,3.60
2024-02-23T02:10:05.111Z,3.60
2024-02-23T02:12:07.198Z,3.60
2024-02-23T02:14:09.310Z,3.60
2024-02-23T02:16:12.287Z,3.60
2024-02-23T02:18:14.292Z,3.60
2024-02-23T02:20:19.991Z,3.50
2024-02-23T02:22:22.014Z,3.50
2024-02-23T02:24:23.947Z,3.60
2024-02-23T02:26:25.961Z,3.60
2024-02-23T02:28:27.790Z,3.60
2024-02-23T02:30:29.688Z,3.70
2024-02-23T02:32:35.847Z,3.70
2024-02-23T02:34:39.381Z,3.70
2024-02-23T02:36:41.401Z,3.70
2024-02-23T02:38:43.267Z,3.80
2024-02-23T02:40:45.511Z,3.80
2024-02-23T02:42:47.437Z,3.90
2024-02-23T02:44:49.363Z,3.90
2024-02-23T02:46:51.584Z,3.80
2024-02-23T02:48:53.600Z,3.90
2024-02-23T02:50:55.788Z,3.90
2024-02-23T02:52:57.811Z,3.90
2024-02-23T02:55:01.371Z,3.90
2024-02-23T02:57:03.436Z,3.90
2024-02-23T02:59:05.219Z,3.90
2024-02-23T03:01:07.240Z,3.90
2024-02-23T03:03:09.227Z,3.90
2024-02-23T03:05:11.214Z,3.90
2024-02-23T03:07:13.384Z,3.90
2024-02-23T03:09:15.322Z,3.90
2024-02-23T03:11:17.301Z,3.90
2024-02-23T03:13:19.214Z,3.90
2024-02-23T03:15:21.167Z,3.90
2024-02-23T03:17:23.109Z,3.90
2024-02-23T03:19:25.131Z,3.90
2024-02-23T03:21:27.118Z,3.80
2024-02-23T03:23:29.857Z,3.90
2024-02-23T03:25:32.039Z,3.90
2024-02-23T03:27:34.004Z,3.90
2024-02-23T03:29:36.037Z,3.90
2024-02-23T03:31:38.315Z,3.90
2024-02-23T03:33:40.420Z,4.00
2024-02-23T03:35:42.476Z,3.90
2024-02-23T03:37:44.403Z,4.00
2024-02-23T03:39:46.377Z,4.00
2024-02-23T03:41:48.342Z,4.00
2024-02-23T03:43:50.237Z,3.90
2024-02-23T03:45:52.188Z,3.90
2024-02-23T03:47:54.172Z,3.90
2024-02-23T03:49:56.045Z,3.80
2024-02-23T03:51:58.017Z,3.70
2024-02-23T03:53:59.970Z,3.70
2024-02-23T03:56:01.978Z,3.70
2024-02-23T03:58:04.365Z,3.70
2024-02-23T04:00:07.487Z,3.70
2024-02-23T04:02:10.103Z,3.70
2024-02-23T04:04:12.152Z,3.70
2024-02-23T04:06:13.987Z,3.70
2024-02-23T04:08:15.922Z,3.70
2024-02-23T04:10:18.022Z,3.60
2024-02-23T04:12:20.956Z,3.60
2024-02-23T04:14:22.868Z,3.60
2024-02-23T04:16:28.793Z,3.60
2024-02-23T04:18:30.857Z,3.60
2024-02-23T04:20:34.084Z,3.60
2024-02-23T04:22:36.114Z,3.60
2024-02-23T04:24:40.362Z,3.60
2024-02-23T04:26:42.255Z,3.60
2024-02-23T04:28:44.400Z,3.60
2024-02-23T04:30:46.188Z,3.60
2024-02-23T04:32:48.828Z,3.70
2024-02-23T04:34:50.889Z,3.60
2024-02-23T04:36:52.756Z,3.60
2024-02-23T04:38:54.657Z,3.60
2024-02-23T04:40:57.771Z,3.70
2024-02-23T04:42:59.768Z,3.70
2024-02-23T04:45:01.738Z,3.70
2024-02-23T04:47:03.963Z,3.80
2024-02-23T04:49:05.945Z,3.70
2024-02-23T04:51:10.974Z,3.70
2024-02-23T04:53:13.089Z,3.90
2024-02-23T04:55:14.987Z,3.80
2024-02-23T04:57:16.912Z,3.90
2024-02-23T04:59:19.002Z,3.90
2024-02-23T05:01:20.920Z,4.00
2024-02-23T05:03:22.882Z,3.90
2024-02-23T05:05:24.945Z,3.80
2024-02-23T05:07:26.812Z,4.00
2024-02-23T05:09:28.730Z,3.90
2024-02-23T05:11:30.769Z,3.90
2024-02-23T05:13:32.590Z,3.90
2024-02-23T05:15:34.557Z,4.00
2024-02-23T05:17:36.583Z,4.00
2024-02-23T05:19:38.539Z,4.00
2024-02-23T05:21:40.479Z,4.00
2024-02-23T05:23:42.699Z,4.10
2024-02-23T05:25:44.696Z,4.10
2024-02-23T05:27:46.607Z,4.10
2024-02-23T05:29:48.643Z,4.10
2024-02-23T05:31:51.502Z,4.20
2024-02-23T05:33:53.457Z,4.40
2024-02-23T05:35:55.413Z,4.30
2024-02-23T05:37:57.559Z,4.30
2024-02-23T05:40:01.201Z,4.30
2024-02-23T05:42:03.278Z,4.30
2024-02-23T05:44:08.649Z,4.30
2024-02-23T05:46:10.686Z,4.30
2024-02-23T05:48:13.010Z,4.30
2024-02-23T05:50:15.367Z,4.30
2024-02-23T05:52:17.233Z,4.30
2024-02-23T05:54:19.323Z,4.30
2024-02-23T05:56:21.413Z,4.30
2024-02-23T05:58:23.286Z,4.30
2024-02-23T06:00:25.978Z,4.30
2024-02-23T06:02:28.073Z,4.30
2024-02-23T06:04:30.226Z,4.30
2024-02-23T06:06:32.807Z,4.30
2024-02-23T06:08:35.108Z,4.30
2024-02-23T06:10:38.940Z,4.30
2024-02-23T06:12:40.893Z,4.30
2024-02-23T06:14:42.871Z,4.30
2024-02-23T06:16:45.191Z,4.30
2024-02-23T06:18:47.189Z,4.30
2024-02-23T06:20:50.707Z,4.40
2024-02-23T06:22:52.725Z,4.30
2024-02-23T06:24:54.717Z,4.30
2024-02-23T06:26:56.466Z,4.40
2024-02-23T06:28:58.402Z,4.30
2024-02-23T06:31:01.609Z,4.40
2024-02-23T06:33:03.916Z,4.40
2024-02-23T06:35:07.633Z,4.40
2024-02-23T06:37:09.677Z,4.40
2024-02-23T06:39:12.025Z,4.40
2024-02-23T06:41:14.200Z,4.50
2024-02-23T06:43:16.267Z,4.50
2024-02-23T06:45:18.182Z,4.50
2024-02-23T06:47:20.170Z,4.50
2024-02-23T06:49:22.079Z,4.60
2024-02-23T06:51:24.086Z,4.60
2024-02-23T06:53:26.151Z,4.60
2024-02-23T06:55:28.144Z,4.60
2024-02-23T06:57:32.183Z,4.60
2024-02-23T06:59:34.243Z,4.70
2024-02-23T07:01:40.307Z,4.70
2024-02-23T07:03:45.268Z,4.60
2024-02-23T07:05:48.599Z,4.70
2024-02-23T07:07:50.659Z,4.70
2024-02-23T07:09:53.275Z,4.70
2024-02-23T07:11:55.341Z,4.80
2024-02-23T07:13:57.369Z,4.80
2024-02-23T07:16:00.429Z,4.80
2024-02-23T07:18:02.569Z,4.90
2024-02-23T07:20:07.222Z,4.90
2024-02-23T07:22:09.512Z,4.90
2024-02-23T07:24:11.386Z,5.00
2024-02-23T07:26:13.387Z,5.00
2024-02-23T07:28:19.493Z,4.90
2024-02-23T07:30:21.455Z,4.90
2024-02-23T07:32:23.447Z,5.00
2024-02-23T07:34:25.815Z,4.90
2024-02-23T07:36:28.719Z,5.00
2024-02-23T07:38:31.069Z,5.10
2024-02-23T07:40:33.380Z,5.00
2024-02-23T07:42:36.806Z,5.00
2024-02-23T07:44:38.846Z,5.10
2024-02-23T07:46:40.822Z,5.00
2024-02-23T07:48:42.910Z,5.20
2024-02-23T07:50:44.946Z,5.30
2024-02-23T07:52:47.355Z,5.10
2024-02-23T07:54:49.689Z,5.20
2024-02-23T07:56:51.654Z,5.20
2024-02-23T07:58:53.645Z,5.20
2024-02-23T08:00:55.551Z,5.20
2024-02-23T08:03:01.475Z,5.20
2024-02-23T08:05:05.174Z,5.40
2024-02-23T08:07:07.592Z,5.40
2024-02-23T08:09:10.602Z,5.30
2024-02-23T08:11:12.569Z,5.40
2024-02-23T08:13:14.544Z,5.50
2024-02-23T08:15:16.611Z,5.50
2024-02-23T08:17:18.462Z,5.50
2024-02-23T08:19:20.393Z,5.50
2024-02-23T08:21:22.355Z,5.50
2024-02-23T08:23:25.508Z,5.50
2024-02-23T08:25:29.968Z,5.50
2024-02-23T08:27:32.030Z,5.50
2024-02-23T08:29:33.965Z,5.60
2024-02-23T08:31:38.375Z,5.60
2024-02-23T08:33:41.505Z,5.60
2024-02-23T08:35:43.976Z,5.60
2024-02-23T08:37:46.243Z,5.50
2024-02-23T08:39:48.249Z,5.50
2024-02-23T08:41:52.714Z,5.70
2024-02-23T08:43:56.692Z,5.70
2024-02-23T08:46:02.093Z,5.80
2024-02-23T08:48:08.181Z,5.80
2024-02-23T08:50:10.741Z,5.90
2024-02-23T08:52:12.811Z,6.00
2024-02-23T08:54:14.738Z,6.20
2024-02-23T08:56:17.493Z,6.00
2024-02-23T08:58:19.490Z,6.00
2024-02-23T09:00:21.691Z,6.30
2024-02-23T09:02:23.504Z,6.30
2024-02-23T09:04:25.473Z,6.50
2024-02-23T09:06:27.614Z,6.60
2024-02-23T09:08:29.891Z,6.70
2024-02-23T09:10:31.857Z,6.60
2024-02-23T09:12:33.765Z,6.70
2024-02-23T09:14:38.761Z,6.80
2024-02-23T09:16:40.757Z,6.80
2024-02-23T09:18:42.909Z,6.90
2024-02-23T09:20:45.107Z,6.80
2024-02-23T09:22:47.022Z,6.90
2024-02-23T09:24:48.935Z,6.90
2024-02-23T09:26:50.949Z,6.80
2024-02-23T09:28:52.848Z,6.80
2024-02-23T09:30:57.772Z,7.00
2024-02-23T09:33:00.826Z,7.00
2024-02-23T09:35:04.651Z,7.20
2024-02-23T09:37:06.595Z,7.10
2024-02-23T09:39:08.593Z,7.10
2024-02-23T09:41:18.919Z,7.00
2024-02-23T09:43:27.188Z,7.00
2024-02-23T09:45:30.231Z,7.00
2024-02-23T09:47:33.058Z,6.90
2024-02-23T09:49:42.244Z,6.80
2024-02-23T09:51:44.958Z,6.80
2024-02-23T09:53:49.314Z,6.90
2024-02-23T09:55:53.002Z,7.00
2024-02-23T09:57:59.260Z,7.20
2024-02-23T10:00:02.312Z,7.40
2024-02-23T10:02:13.025Z,7.50
2024-02-23T10:04:16.026Z,7.70
2024-02-23T10:06:18.101Z,7.90
2024-02-23T10:08:20.099Z,7.90
2024-02-23T10:10:40.418Z,7.70
2024-02-23T10:12:42.450Z,7.80
2024-02-23T10:14:44.494Z,7.80
2024-02-23T10:16:46.457Z,7.80
2024-02-23T10:18:49.905Z,8.00
2024-02-23T10:20:53.739Z,8.00
2024-02-23T10:22:55.957Z,8.10
2024-02-23T10:24:59.012Z,8.10
2024-02-23T10:27:03.686Z,8.20
2024-02-23T10:29:05.758Z,8.20
2024-02-23T10:31:10.663Z,8.30
2024-02-23T10:33:15.803Z,8.20
2024-02-23T10:35:19.020Z,8.20
2024-02-23T10:37:23.894Z,8.20
2024-02-23T10:39:27.231Z,8.20
2024-02-23T10:41:32.970Z,8.20
2024-02-23T10:43:41.244Z,8.20
2024-02-23T10:45:44.591Z,8.30
2024-02-23T10:47:47.552Z,8.30
2024-02-23T10:49:50.014Z,8.20
2024-02-23T10:51:53.269Z,8.30
2024-02-23T10:53:56.412Z,8.30
2024-02-23T10:56:00.872Z,8.50
2024-02-23T10:58:04.549Z,8.50
2024-02-23T11:00:11.109Z,8.50
2024-02-23T11:02:17.440Z,8.40
2024-02-23T11:04:23.913Z,8.40
2024-02-23T11:06:29.980Z,8.50
2024-02-23T11:08:34.349Z,8.50
2024-02-23T11:11:12.292Z,8.60
2024-02-23T11:13:16.235Z,8.70
2024-02-23T11:15:33.246Z,8.60
2024-02-23T11:17:38.566Z,8.70
2024-02-23T11:19:41.637Z,8.70
2024-02-23T11:21:43.576Z,8.60
2024-02-23T11:23:52.433Z,8.60
2024-02-23T11:26:24.206Z,8.70
2024-02-23T11:28:26.590Z,8.70
2024-02-23T11:30:28.607Z,8.70
2024-02-23T11:32:44.596Z,8.70
2024-02-23T11:34:58.074Z,8.70
2024-02-23T11:37:12.182Z,8.80
2024-02-23T11:39:15.215Z,8.80
2024-02-23T11:41:18.143Z,8.70
2024-02-23T11:43:22.293Z,8.70
2024-02-23T11:45:26.314Z,8.70
2024-02-23T11:47:28.444Z,8.80
2024-02-23T11:49:30.993Z,8.80
2024-02-23T11:51:33.026Z,8.80
2024-02-23T11:53:35.301Z,8.80
2024-02-23T11:55:37.438Z,8.90
2024-02-23T11:57:46.877Z,9.00
2024-02-23T11:59:53.236Z,9.00
2024-02-23T12:01:55.668Z,9.00
2024-02-23T12:03:57.635Z,9.00
2024-02-23T12:06:00.737Z,9.00
2024-02-23T12:08:03.151Z,8.90
2024-02-23T12:10:07.325Z,9.00
2024-02-23T12:12:10.378Z,9.00
2024-02-23T12:14:12.765Z,9.10
2024-02-23T12:16:15.945Z,9.20
2024-02-23T12:18:17.942Z,9.20
2024-02-23T12:20:20.027Z,9.20
2024-02-23T12:22:25.437Z,9.40
2024-02-23T12:24:29.392Z,9.60
2024-02-23T12:26:32.275Z,9.60
2024-02-23T12:28:34.582Z,9.50
2024-02-23T12:30:36.532Z,9.50
2024-02-23T12:32:38.569Z,9.40
2024-02-23T12:34:40.558Z,9.40
2024-02-23T12:36:42.675Z,9.40
2024-02-23T12:38:44.602Z,9.50
2024-02-23T12:40:46.632Z,9.50
2024-02-23T12:42:49.894Z,9.40
2024-02-23T12:44:51.827Z,9.50
2024-02-23T12:46:53.768Z,9.50
2024-02-23T12:48:55.705Z,9.50
2024-02-23T12:50:57.739Z,9.40
2024-02-23T12:53:00.616Z,9.50
2024-02-23T12:55:02.550Z,9.60
2024-02-23T12:57:04.518Z,9.60
2024-02-23T12:59:06.548Z,9.60
2024-02-23T13:01:08.895Z,9.70
2024-02-23T13:03:10.964Z,9.80
2024-02-23T13:05:12.997Z,9.80
2024-02-23T13:07:14.811Z,9.90
2024-02-23T13:09:16.789Z,9.90
2024-02-23T13:11:18.771Z,10.00
2024-02-23T13:13:21.039Z,9.90
2024-02-23T13:15:26.893Z,10.00
2024-02-23T13:17:29.210Z,9.90
2024-02-23T13:19:31.125Z,9.80
2024-02-23T13:21:33.846Z,9.90
2024-02-23T13:23:37.437Z,9.90
2024-02-23T13:25:40.802Z,9.90
2024-02-23T13:27:42.754Z,9.80
2024-02-23T13:29:44.727Z,9.80
2024-02-23T13:31:46.734Z,9.80
2024-02-23T13:33:48.910Z,9.80
2024-02-23T13:35:51.420Z,9.80
2024-02-23T13:37:53.579Z,9.80
2024-02-23T13:39:55.441Z,9.90
2024-02-23T13:41:57.390Z,9.80
2024-02-23T13:43:59.330Z,9.80
2024-02-23T13:46:01.396Z,9.80
2024-02-23T13:48:04.520Z,9.80
2024-02-23T13:50:07.433Z,9.70
2024-02-23T13:52:09.710Z,9.70
2024-02-23T13:54:12.799Z,9.70
2024-02-23T13:56:14.927Z,9.70
2024-02-23T13:58:16.819Z,9.70
2024-02-23T14:00:20.462Z,9.70
2024-02-23T14:02:28.299Z,9.60
2024-02-23T14:04:30.396Z,9.60
2024-02-23T14:06:32.359Z,9.50
2024-02-23T14:08:38.710Z,9.50
2024-02-23T14:10:41.906Z,9.50
2024-02-23T14:12:44.185Z,9.50
2024-02-23T14:14:46.200Z,9.40
2024-02-23T14:16:48.302Z,9.40
2024-02-23T14:18:50.534Z,9.40
2024-02-23T14:20:53.763Z,9.40
2024-02-23T14:22:55.881Z,9.30
2024-02-23T14:24:57.775Z,9.30
2024-02-23T14:26:59.783Z,9.30
2024-02-23T14:29:03.217Z,9.30
2024-02-23T14:31:05.387Z,9.30
2024-02-23T14:33:07.373Z,9.30
2024-02-23T14:35:10.661Z,9.30
2024-02-23T14:37:13.011Z,9.30
2024-02-23T14:39:15.040Z,9.30
2024-02-23T14:41:17.043Z,9.30
2024-02-23T14:43:19.213Z,9.20
2024-02-23T14:45:23.192Z,9.20
2024-02-23T14:47:32.118Z,9.10
2024-02-23T14:49:37.490Z,9.20
2024-02-23T14:51:40.792Z,9.10
2024-02-23T14:53:42.923Z,9.20
2024-02-23T14:55:44.848Z,9.10
2024-02-23T14:57:46.971Z,9.10
2024-02-23T14:59:51.274Z,9.10
2024-02-23T15:01:53.281Z,9.00
2024-02-23T15:03:55.337Z,9.10
2024-02-23T15:05:57.333Z,9.00
2024-02-23T15:07:59.448Z,9.00
2024-02-23T15:10:06.314Z,9.00
2024-02-23T15:12:08.611Z,8.90
2024-02-23T15:14:10.653Z,9.00
2024-02-23T15:16:12.695Z,8.90
2024-02-23T15:18:14.601Z,8.80
2024-02-23T15:20:16.823Z,8.80
2024-02-23T15:22:20.278Z,8.80
2024-02-23T15:24:25.202Z,8.70
2024-02-23T15:26:27.156Z,8.70
2024-02-23T15:28:29.207Z,8.70
2024-02-23T15:30:31.287Z,8.60
2024-02-23T15:32:33.862Z,8.60
2024-02-23T15:34:36.061Z,8.50
2024-02-23T15:36:38.282Z,8.40
2024-02-23T15:38:40.189Z,8.40
2024-02-23T15:40:42.245Z,8.30
2024-02-23T15:42:44.255Z,8.30
2024-02-23T15:44:46.486Z,8.30
2024-02-23T15:46:48.541Z,8.20
2024-02-23T15:48:50.574Z,8.20
2024-02-23T15:52:59.712Z,8.20
2024-02-23T15:55:01.831Z,8.20
2024-02-23T15:57:04.678Z,8.20
2024-02-23T15:59:09.434Z,8.20
2024-02-23T16:01:11.710Z,8.10
2024-02-23T16:03:13.736Z,8.10
2024-02-23T16:05:16.634Z,8.00
2024-02-23T16:07:18.836Z,8.00
2024-02-23T16:09:20.657Z,8.00
2024-02-23T16:11:23.467Z,7.90
2024-02-23T16:13:26.526Z,7.90
2024-02-23T16:15:29.247Z,7.90
2024-02-23T16:17:31.851Z,7.90
2024-02-23T16:19:33.842Z,7.90
2024-02-23T16:21:38.731Z,7.90
2024-02-23T16:23:40.706Z,7.90
2024-02-23T16:25:42.717Z,7.90
2024-02-23T16:27:45.047Z,7.90
2024-02-23T16:29:47.146Z,7.90
2024-02-23T16:31:49.034Z,7.90
2024-02-23T16:33:51.387Z,7.80
2024-02-23T16:36:03.060Z,7.90
2024-02-23T16:38:05.150Z,7.90
2024-02-23T16:40:08.054Z,7.80
2024-02-23T16:42:10.145Z,7.80
2024-02-23T16:44:14.253Z,7.80
2024-02-23T16:46:16.344Z,7.80
2024-02-23T16:48:18.470Z,7.80
2024-02-23T16:50:24.049Z,7.80
2024-02-23T16:52:26.262Z,7.70
2024-02-23T16:54:28.082Z,7.70
2024-02-23T16:56:30.191Z,7.80
2024-02-23T16:58:36.977Z,7.80
2024-02-23T17:00:39.288Z,7.70
2024-02-23T17:02:41.544Z,7.70
2024-02-23T17:04:45.801Z,7.70
2024-02-23T17:06:47.873Z,7.70
2024-02-23T17:08:51.932Z,7.70
2024-02-23T17:10:56.897Z,7.70
2024-02-23T17:12:59.242Z,7.70
2024-02-23T17:15:04.089Z,7.70
2024-02-23T17:17:06.017Z,7.70
2024-02-23T17:19:12.611Z,7.70
2024-02-23T17:21:17.198Z,7.70
2024-02-23T17:23:19.260Z,7.60
2024-02-23T17:25:21.119Z,7.60
2024-02-23T17:27:23.300Z,7.60
2024-02-23T17:29:29.047Z,7.50
2024-02-23T17:31:31.294Z,7.50
2024-02-23T17:33:36.232Z,7.50
2024-02-23T17:35:40.295Z,7.50
2024-02-23T17:37:42.453Z,7.50
2024-02-23T17:39:46.342Z,7.40
2024-02-23T17:41:50.646Z,7.40
2024-02-23T17:43:52.660Z,7.40
2024-02-23T17:45:55.054Z,7.40
2024-02-23T17:48:01.181Z,7.40
2024-02-23T17:50:04.382Z,7.40
2024-02-23T17:52:06.796Z,7.30
2024-02-23T17:54:09.224Z,7.30
2024-02-23T17:56:11.498Z,7.30
2024-02-23T17:58:20.078Z,7.40
2024-02-23T18:00:23.035Z,7.40
2024-02-23T18:02:26.641Z,7.40
2024-02-23T18:04:28.794Z,7.40
2024-02-23T18:06:30.811Z,7.30
2024-02-23T18:08:33.369Z,7.40
2024-02-23T18:10:35.397Z,7.30
2024-02-23T18:12:37.355Z,7.30
2024-02-23T18:14:39.385Z,7.30
2024-02-23T18:16:41.316Z,7.30
2024-02-23T18:18:43.321Z,7.40
2024-02-23T18:20:45.213Z,7.40
2024-02-23T18:22:47.272Z,7.40
2024-02-23T18:24:49.108Z,7.40
2024-02-23T18:26:51.086Z,7.30
2024-02-23T18:28:53.042Z,7.30
2024-02-23T18:30:55.019Z,7.30
2024-02-23T18:32:57.251Z,7.30
2024-02-23T18:34:59.366Z,7.30
2024-02-23T18:37:01.237Z,7.20
2024-02-23T18:39:03.825Z,7.20
2024-02-23T18:41:06.549Z,7.20
2024-02-23T18:43:08.548Z,7.20
2024-02-23T18:45:10.577Z,7.20
2024-02-23T18:47:12.633Z,7.20
2024-02-23T18:49:14.569Z,7.10
2024-02-23T18:51:20.572Z,7.10
2024-02-23T18:53:23.844Z,7.10
2024-02-23T18:55:29.571Z,7.10
2024-02-23T18:57:33.232Z,7.10
2024-02-23T18:59:35.244Z,7.00
2024-02-23T19:01:37.157Z,7.00
2024-02-23T19:03:39.204Z,7.00
2024-02-23T19:05:41.508Z,7.00
2024-02-23T19:07:43.527Z,7.00
2024-02-23T19:09:45.460Z,7.00
2024-02-23T19:11:47.563Z,7.00
2024-02-23T19:13:49.923Z,7.00
2024-02-23T19:15:51.827Z,7.00
2024-02-23T19:17:53.966Z,6.90
2024-02-23T19:19:55.980Z,6.90
2024-02-23T19:21:57.985Z,6.90
2024-02-23T19:23:59.957Z,6.90
2024-02-23T19:26:01.949Z,6.90
2024-02-23T19:28:04.294Z,6.80
2024-02-23T19:30:09.401Z,6.90
2024-02-23T19:32:11.506Z,6.90
2024-02-23T19:34:13.660Z,6.80
2024-02-23T19:36:16.213Z,6.70
2024-02-23T19:38:18.235Z,6.70
2024-02-23T19:40:23.096Z,6.70
2024-02-23T19:42:25.126Z,6.70
2024-02-23T19:44:28.124Z,6.70
2024-02-23T19:46:30.057Z,6.70
2024-02-23T19:48:32.064Z,6.70
2024-02-23T19:50:34.044Z,6.70
2024-02-23T19:52:36.095Z,6.70
2024-02-23T19:54:38.264Z,6.60
2024-02-23T19:56:42.991Z,6.60
2024-02-23T19:58:45.089Z,6.70
2024-02-23T20:00:47.143Z,6.70
2024-02-23T20:02:49.225Z,6.70
2024-02-23T20:04:54.134Z,6.70
2024-02-23T20:06:56.676Z,6.60
2024-02-23T20:08:58.668Z,6.60
2024-02-23T20:11:01.522Z,6.60
2024-02-23T20:13:03.721Z,6.50
2024-02-23T20:15:06.779Z,6.50
2024-02-23T20:17:26.303Z,6.50
2024-02-23T20:19:29.272Z,6.50
2024-02-23T20:21:34.397Z,6.40
2024-02-23T20:23:36.464Z,6.30
2024-02-23T20:25:41.764Z,6.30
2024-02-23T20:27:43.821Z,6.30
2024-02-23T20:29:47.074Z,6.30
2024-02-23T20:31:49.108Z,6.30
2024-02-23T20:33:51.313Z,6.20
2024-02-23T20:35:53.372Z,6.10
2024-02-23T20:37:59.472Z,6.10
2024-02-23T20:40:06.706Z,6.20
2024-02-23T20:42:10.291Z,6.10
2024-02-23T20:44:12.380Z,6.10
2024-02-23T20:46:14.369Z,6.10
2024-02-23T20:48:16.439Z,6.10
2024-02-23T20:50:19.926Z,6.10
2024-02-23T20:52:21.861Z,6.10
2024-02-23T20:54:24.150Z,6.10
2024-02-23T20:56:28.518Z,6.00
2024-02-23T20:58:30.944Z,6.00
2024-02-23T21:00:34.011Z,6.00
2024-02-23T21:02:37.993Z,6.00
2024-02-23T21:04:40.698Z,6.00
2024-02-23T21:06:42.784Z,6.00
2024-02-23T21:08:44.755Z,6.00
2024-02-23T21:10:46.721Z,6.00
2024-02-23T21:12:48.641Z,6.00
2024-02-23T21:14:52.064Z,5.90
2024-02-23T21:16:54.059Z,5.90
2024-02-23T21:18:56.096Z,5.90
2024-02-23T21:20:59.208Z,5.90
2024-02-23T21:23:01.269Z,5.80
2024-02-23T21:25:03.640Z,5.80
2024-02-23T21:27:05.886Z,5.80
2024-02-23T21:29:07.848Z,5.70
2024-02-23T21:31:09.810Z,5.80
2024-02-23T21:33:12.395Z,5.70
2024-02-23T21:35:14.520Z,5.60
2024-02-23T21:37:19.012Z,5.60
2024-02-23T21:39:21.038Z,5.60
2024-02-23T21:41:23.145Z,5.50
2024-02-23T21:43:26.783Z,5.50
2024-02-23T21:45:28.828Z,5.50
2024-02-23T21:47:30.968Z,5.50
2024-02-23T21:49:34.524Z,5.50
2024-02-23T21:51:40.484Z,5.50
2024-02-23T21:53:42.516Z,5.50
2024-02-23T21:55:44.337Z,5.50
2024-02-23T21:57:46.528Z,5.50
2024-02-23T21:59:50.360Z,5.50
2024-02-23T22:01:52.439Z,5.40
2024-02-23T22:03:54.640Z,5.40
2024-02-23T22:05:57.190Z,5.50
2024-02-23T22:07:59.270Z,5.50
2024-02-23T22:10:01.210Z,5.50
2024-02-23T22:12:03.405Z,5.50
2024-02-23T22:14:05.460Z,5.50
2024-02-23T22:16:07.645Z,5.40
2024-02-23T22:18:09.694Z,5.40
2024-02-23T22:20:11.678Z,5.40
2024-02-23T22:22:13.756Z,5.30
2024-02-23T22:24:15.616Z,5.30
2024-02-23T22:26:17.578Z,5.30
2024-02-23T22:28:19.647Z,5.20
2024-02-23T22:30:21.576Z,5.20
2024-02-23T22:32:24.956Z,5.20
2024-02-23T22:34:28.806Z,5.20
2024-02-23T22:36:31.109Z,5.20
2024-02-23T22:38:33.251Z,5.20
2024-02-23T22:40:37.051Z,5.10
2024-02-23T22:42:39.128Z,5.10
2024-02-23T22:44:41.086Z,5.10
2024-02-23T22:46:43.657Z,5.10
2024-02-23T22:48:45.672Z,5.00
2024-02-23T22:50:47.698Z,5.00
2024-02-23T22:52:49.757Z,5.00
2024-02-23T22:54:51.748Z,5.00
2024-02-23T22:56:53.797Z,5.00
2024-02-23T22:58:55.801Z,5.00
2024-02-23T23:00:57.781Z,5.00
2024-02-23T23:02:59.780Z,5.00
2024-02-23T23:05:01.959Z,5.00
2024-02-23T23:07:05.259Z,5.00
2024-02-23T23:09:10.713Z,5.10
2024-02-23T23:11:13.034Z,5.10
2024-02-23T23:13:15.130Z,5.10
2024-02-23T23:15:17.087Z,5.10
2024-02-23T23:17:20.686Z,5.10
2024-02-23T23:19:23.680Z,5.00
2024-02-23T23:21:25.940Z,5.00
2024-02-23T23:23:27.937Z,5.00
2024-02-23T23:25:30.005Z,5.00
2024-02-23T23:27:32.001Z,5.00
2024-02-23T23:29:34.067Z,5.00
2024-02-23T23:31:36.138Z,5.00
2024-02-23T23:33:38.123Z,5.00
2024-02-23T23:35:40.000Z,5.00
2024-02-23T23:37:42.103Z,5.00
2024-02-23T23:39:43.892Z,5.00
2024-02-23T23:41:47.106Z,5.10
2024-02-23T23:43:49.233Z,5.10
2024-02-23T23:45:51.090Z,5.20
2024-02-23T23:47:53.105Z,5.20
2024-02-23T23:49:54.982Z,5.20
2024-02-23T23:52:03.790Z,5.20
2024-02-23T23:54:07.109Z,5.20
2024-02-23T23:56:10.462Z,5.20
2024-02-23T23:58:12.465Z,5.20
